sensor_id;sensor_type;location;lat;lon;timestamp;P1;durP1;ratioP1;P2;durP2;ratioP2
64643;SDS011;51056;50.330;7.914;2023-08-21T00:01:58;12.50;;;5.80;;
64643;SDS011;51056;50.330;7.914;2023-08-21T00:05:03;10.60;;;5.53;;
64643;SDS011;51056;50.330;7.914;2023-08-21T00:08:13;11.77;;;5.68;;
64643;SDS011;51056;50.330;7.914;2023-08-21T00:11:20;10.35;;;6.07;;
64643;SDS011;51056;50.330;7.914;2023-08-21T00:14:50;17.45;;;5.88;;
64643;SDS011;51056;50.330;7.914;2023-08-21T00:18:22;7.53;;;5.47;;
64643;SDS011;51056;50.330;7.914;2023-08-21T00:21:37;13.75;;;6.55;;
64643;SDS011;51056;50.330;7.914;2023-08-21T00:25:02;13.23;;;6.30;;
64643;SDS011;51056;50.330;7.914;2023-08-21T00:28:13;15.23;;;6.15;;
64643;SDS011;51056;50.330;7.914;2023-08-21T00:31:20;8.63;;;5.88;;
64643;SDS011;51056;50.330;7.914;2023-08-21T00:34:31;17.33;;;6.60;;
64643;SDS011;51056;50.330;7.914;2023-08-21T00:37:37;11.07;;;5.80;;
64643;SDS011;51056;50.330;7.914;2023-08-21T00:40:45;14.88;;;6.10;;
64643;SDS011;51056;50.330;7.914;2023-08-21T00:43:49;8.45;;;5.65;;
64643;SDS011;51056;50.330;7.914;2023-08-21T00:47:11;8.43;;;6.10;;
64643;SDS011;51056;50.330;7.914;2023-08-21T00:50:32;8.05;;;5.38;;
64643;SDS011;51056;50.330;7.914;2023-08-21T00:53:38;12.02;;;5.38;;
64643;SDS011;51056;50.330;7.914;2023-08-21T00:56:48;13.00;;;5.68;;
64643;SDS011;51056;50.330;7.914;2023-08-21T01:00:06;18.80;;;6.60;;
64643;SDS011;51056;50.330;7.914;2023-08-21T01:03:20;9.63;;;5.60;;
64643;SDS011;51056;50.330;7.914;2023-08-21T01:06:27;10.63;;;5.50;;
64643;SDS011;51056;50.330;7.914;2023-08-21T01:09:33;10.82;;;5.30;;
64643;SDS011;51056;50.330;7.914;2023-08-21T01:12:50;11.27;;;5.80;;
64643;SDS011;51056;50.330;7.914;2023-08-21T01:15:54;16.15;;;5.53;;
64643;SDS011;51056;50.330;7.914;2023-08-21T01:19:00;12.20;;;6.43;;
64643;SDS011;51056;50.330;7.914;2023-08-21T01:22:09;12.73;;;5.90;;
64643;SDS011;51056;50.330;7.914;2023-08-21T01:25:12;9.73;;;6.10;;
64643;SDS011;51056;50.330;7.914;2023-08-21T01:33:25;7.68;;;5.38;;
64643;SDS011;51056;50.330;7.914;2023-08-21T01:36:33;14.85;;;6.25;;
64643;SDS011;51056;50.330;7.914;2023-08-21T01:39:54;11.43;;;6.35;;
64643;SDS011;51056;50.330;7.914;2023-08-21T01:47:35;19.38;;;6.93;;
64643;SDS011;51056;50.330;7.914;2023-08-21T01:50:51;11.70;;;7.10;;
64643;SDS011;51056;50.330;7.914;2023-08-21T01:54:14;10.88;;;6.10;;
64643;SDS011;51056;50.330;7.914;2023-08-21T01:57:32;16.98;;;6.68;;
64643;SDS011;51056;50.330;7.914;2023-08-21T02:00:36;12.13;;;5.97;;
64643;SDS011;51056;50.330;7.914;2023-08-21T02:03:46;12.25;;;6.93;;
64643;SDS011;51056;50.330;7.914;2023-08-21T02:06:53;14.30;;;5.65;;
64643;SDS011;51056;50.330;7.914;2023-08-21T02:10:02;14.45;;;6.20;;
64643;SDS011;51056;50.330;7.914;2023-08-21T02:13:10;14.32;;;6.13;;
64643;SDS011;51056;50.330;7.914;2023-08-21T02:16:14;14.45;;;6.15;;
64643;SDS011;51056;50.330;7.914;2023-08-21T02:19:20;12.95;;;6.40;;
64643;SDS011;51056;50.330;7.914;2023-08-21T02:22:24;9.77;;;5.95;;
64643;SDS011;51056;50.330;7.914;2023-08-21T02:25:27;12.05;;;6.53;;
64643;SDS011;51056;50.330;7.914;2023-08-21T02:28:30;13.13;;;6.45;;
64643;SDS011;51056;50.330;7.914;2023-08-21T02:31:34;12.77;;;5.75;;
64643;SDS011;51056;50.330;7.914;2023-08-21T02:34:41;11.00;;;6.07;;
64643;SDS011;51056;50.330;7.914;2023-08-21T02:37:44;12.45;;;6.28;;
64643;SDS011;51056;50.330;7.914;2023-08-21T02:40:50;10.63;;;6.13;;
64643;SDS011;51056;50.330;7.914;2023-08-21T02:43:53;15.40;;;6.07;;
64643;SDS011;51056;50.330;7.914;2023-08-21T02:47:02;10.75;;;6.68;;
64643;SDS011;51056;50.330;7.914;2023-08-21T02:50:10;16.95;;;6.45;;
64643;SDS011;51056;50.330;7.914;2023-08-21T02:53:17;11.50;;;6.55;;
64643;SDS011;51056;50.330;7.914;2023-08-21T02:56:24;10.18;;;5.80;;
64643;SDS011;51056;50.330;7.914;2023-08-21T02:59:34;14.40;;;6.10;;
64643;SDS011;51056;50.330;7.914;2023-08-21T03:02:40;14.27;;;7.03;;
64643;SDS011;51056;50.330;7.914;2023-08-21T03:05:46;11.07;;;6.57;;
64643;SDS011;51056;50.330;7.914;2023-08-21T03:08:49;13.20;;;7.28;;
64643;SDS011;51056;50.330;7.914;2023-08-21T03:11:57;10.15;;;6.35;;
64643;SDS011;51056;50.330;7.914;2023-08-21T03:15:00;10.40;;;6.35;;
64643;SDS011;51056;50.330;7.914;2023-08-21T03:18:05;13.13;;;6.32;;
64643;SDS011;51056;50.330;7.914;2023-08-21T03:21:09;10.95;;;6.20;;
64643;SDS011;51056;50.330;7.914;2023-08-21T03:24:13;14.02;;;7.55;;
64643;SDS011;51056;50.330;7.914;2023-08-21T03:27:18;10.18;;;6.97;;
64643;SDS011;51056;50.330;7.914;2023-08-21T03:30:22;21.70;;;8.57;;
64643;SDS011;51056;50.330;7.914;2023-08-21T03:33:26;15.73;;;7.68;;
64643;SDS011;51056;50.330;7.914;2023-08-21T03:36:29;21.88;;;8.45;;
64643;SDS011;51056;50.330;7.914;2023-08-21T03:39:39;18.52;;;8.63;;
64643;SDS011;51056;50.330;7.914;2023-08-21T03:47:28;21.73;;;9.80;;
64643;SDS011;51056;50.330;7.914;2023-08-21T03:50:37;29.70;;;11.65;;
64643;SDS011;51056;50.330;7.914;2023-08-21T03:53:40;16.08;;;10.35;;
64643;SDS011;51056;50.330;7.914;2023-08-21T03:56:46;24.13;;;11.55;;
64643;SDS011;51056;50.330;7.914;2023-08-21T03:59:51;18.95;;;10.60;;
64643;SDS011;51056;50.330;7.914;2023-08-21T04:02:59;21.85;;;11.57;;
64643;SDS011;51056;50.330;7.914;2023-08-21T04:06:04;21.05;;;10.40;;
64643;SDS011;51056;50.330;7.914;2023-08-21T04:09:29;18.65;;;9.52;;
64643;SDS011;51056;50.330;7.914;2023-08-21T04:12:39;17.27;;;9.60;;
64643;SDS011;51056;50.330;7.914;2023-08-21T04:15:48;19.80;;;11.23;;
64643;SDS011;51056;50.330;7.914;2023-08-21T04:19:05;18.80;;;12.02;;
64643;SDS011;51056;50.330;7.914;2023-08-21T04:22:11;19.10;;;11.65;;
64643;SDS011;51056;50.330;7.914;2023-08-21T04:25:21;26.45;;;9.82;;
64643;SDS011;51056;50.330;7.914;2023-08-21T04:28:37;18.48;;;10.88;;
64643;SDS011;51056;50.330;7.914;2023-08-21T04:31:40;16.75;;;9.85;;
64643;SDS011;51056;50.330;7.914;2023-08-21T04:34:44;20.08;;;9.68;;
64643;SDS011;51056;50.330;7.914;2023-08-21T04:37:57;14.15;;;8.98;;
64643;SDS011;51056;50.330;7.914;2023-08-21T04:41:08;16.00;;;8.32;;
64643;SDS011;51056;50.330;7.914;2023-08-21T04:44:13;12.20;;;8.45;;
64643;SDS011;51056;50.330;7.914;2023-08-21T04:47:21;12.68;;;8.52;;
64643;SDS011;51056;50.330;7.914;2023-08-21T04:50:28;12.45;;;9.07;;
64643;SDS011;51056;50.330;7.914;2023-08-21T04:53:31;13.52;;;9.27;;
64643;SDS011;51056;50.330;7.914;2023-08-21T04:56:35;12.60;;;8.57;;
64643;SDS011;51056;50.330;7.914;2023-08-21T04:59:39;12.60;;;8.77;;
64643;SDS011;51056;50.330;7.914;2023-08-21T05:02:42;18.13;;;9.50;;
64643;SDS011;51056;50.330;7.914;2023-08-21T05:05:55;12.63;;;8.32;;
64643;SDS011;51056;50.330;7.914;2023-08-21T05:08:59;13.43;;;9.25;;
64643;SDS011;51056;50.330;7.914;2023-08-21T05:12:03;14.23;;;9.07;;
64643;SDS011;51056;50.330;7.914;2023-08-21T05:15:06;14.77;;;9.02;;
64643;SDS011;51056;50.330;7.914;2023-08-21T05:18:11;15.13;;;9.18;;
64643;SDS011;51056;50.330;7.914;2023-08-21T05:21:14;12.45;;;8.38;;
64643;SDS011;51056;50.330;7.914;2023-08-21T05:24:19;9.32;;;8.32;;
64643;SDS011;51056;50.330;7.914;2023-08-21T05:27:29;12.32;;;8.65;;
64643;SDS011;51056;50.330;7.914;2023-08-21T05:30:32;16.75;;;8.88;;
64643;SDS011;51056;50.330;7.914;2023-08-21T05:33:35;15.52;;;8.30;;
64643;SDS011;51056;50.330;7.914;2023-08-21T05:36:39;10.32;;;8.10;;
64643;SDS011;51056;50.330;7.914;2023-08-21T05:39:43;9.48;;;7.55;;
64643;SDS011;51056;50.330;7.914;2023-08-21T05:42:47;10.98;;;8.05;;
64643;SDS011;51056;50.330;7.914;2023-08-21T05:45:50;8.20;;;6.97;;
64643;SDS011;51056;50.330;7.914;2023-08-21T05:48:54;11.35;;;7.20;;
64643;SDS011;51056;50.330;7.914;2023-08-21T05:52:00;9.20;;;6.50;;
64643;SDS011;51056;50.330;7.914;2023-08-21T05:55:04;8.25;;;6.90;;
64643;SDS011;51056;50.330;7.914;2023-08-21T05:58:10;7.15;;;6.45;;
64643;SDS011;51056;50.330;7.914;2023-08-21T06:01:14;9.75;;;7.97;;
64643;SDS011;51056;50.330;7.914;2023-08-21T06:04:18;8.85;;;7.25;;
64643;SDS011;51056;50.330;7.914;2023-08-21T06:07:32;10.38;;;6.85;;
64643;SDS011;51056;50.330;7.914;2023-08-21T06:10:36;6.70;;;6.00;;
64643;SDS011;51056;50.330;7.914;2023-08-21T06:13:39;5.45;;;4.95;;
64643;SDS011;51056;50.330;7.914;2023-08-21T06:16:44;8.50;;;5.10;;
64643;SDS011;51056;50.330;7.914;2023-08-21T06:19:52;9.45;;;5.85;;
64643;SDS011;51056;50.330;7.914;2023-08-21T06:22:56;12.63;;;5.75;;
64643;SDS011;51056;50.330;7.914;2023-08-21T06:26:05;7.57;;;5.10;;
64643;SDS011;51056;50.330;7.914;2023-08-21T06:29:14;7.53;;;5.43;;
64643;SDS011;51056;50.330;7.914;2023-08-21T06:32:26;8.27;;;5.60;;
64643;SDS011;51056;50.330;7.914;2023-08-21T06:35:42;7.55;;;4.80;;
64643;SDS011;51056;50.330;7.914;2023-08-21T06:38:46;6.13;;;5.13;;
64643;SDS011;51056;50.330;7.914;2023-08-21T06:42:26;8.75;;;4.93;;
64643;SDS011;51056;50.330;7.914;2023-08-21T06:46:09;7.78;;;5.45;;
64643;SDS011;51056;50.330;7.914;2023-08-21T06:49:33;7.97;;;6.15;;
64643;SDS011;51056;50.330;7.914;2023-08-21T06:52:37;10.35;;;5.47;;
64643;SDS011;51056;50.330;7.914;2023-08-21T06:55:41;7.85;;;5.20;;
64643;SDS011;51056;50.330;7.914;2023-08-21T06:58:44;9.40;;;5.90;;
64643;SDS011;51056;50.330;7.914;2023-08-21T07:01:47;7.57;;;5.60;;
64643;SDS011;51056;50.330;7.914;2023-08-21T07:04:51;10.60;;;6.90;;
64643;SDS011;51056;50.330;7.914;2023-08-21T07:07:54;8.68;;;6.35;;
64643;SDS011;51056;50.330;7.914;2023-08-21T07:10:58;6.30;;;5.45;;
64643;SDS011;51056;50.330;7.914;2023-08-21T07:14:07;6.70;;;5.95;;
64643;SDS011;51056;50.330;7.914;2023-08-21T07:17:10;8.82;;;5.45;;
64643;SDS011;51056;50.330;7.914;2023-08-21T07:20:14;7.90;;;5.65;;
64643;SDS011;51056;50.330;7.914;2023-08-21T07:23:17;9.40;;;6.72;;
64643;SDS011;51056;50.330;7.914;2023-08-21T07:26:26;10.50;;;6.60;;
64643;SDS011;51056;50.330;7.914;2023-08-21T07:29:31;7.85;;;5.57;;
64643;SDS011;51056;50.330;7.914;2023-08-21T07:32:35;6.93;;;5.30;;
64643;SDS011;51056;50.330;7.914;2023-08-21T07:35:38;9.35;;;5.75;;
64643;SDS011;51056;50.330;7.914;2023-08-21T07:38:41;8.77;;;5.90;;
64643;SDS011;51056;50.330;7.914;2023-08-21T07:41:44;15.75;;;6.55;;
64643;SDS011;51056;50.330;7.914;2023-08-21T07:44:48;8.27;;;5.85;;
64643;SDS011;51056;50.330;7.914;2023-08-21T07:51:47;12.63;;;6.82;;
64643;SDS011;51056;50.330;7.914;2023-08-21T07:54:51;9.65;;;6.10;;
64643;SDS011;51056;50.330;7.914;2023-08-21T07:57:55;10.27;;;6.80;;
64643;SDS011;51056;50.330;7.914;2023-08-21T08:00:58;8.23;;;6.15;;
64643;SDS011;51056;50.330;7.914;2023-08-21T08:04:02;9.80;;;6.47;;
64643;SDS011;51056;50.330;7.914;2023-08-21T08:07:05;12.40;;;6.15;;
64643;SDS011;51056;50.330;7.914;2023-08-21T08:10:09;9.25;;;6.53;;
64643;SDS011;51056;50.330;7.914;2023-08-21T08:13:12;6.68;;;5.88;;
64643;SDS011;51056;50.330;7.914;2023-08-21T08:16:15;8.02;;;6.25;;
64643;SDS011;51056;50.330;7.914;2023-08-21T08:19:34;10.05;;;5.60;;
64643;SDS011;51056;50.330;7.914;2023-08-21T08:22:46;6.75;;;6.03;;
64643;SDS011;51056;50.330;7.914;2023-08-21T08:26:07;6.93;;;5.97;;
64643;SDS011;51056;50.330;7.914;2023-08-21T08:29:22;13.35;;;6.72;;
64643;SDS011;51056;50.330;7.914;2023-08-21T08:32:28;8.65;;;5.80;;
64643;SDS011;51056;50.330;7.914;2023-08-21T08:35:32;7.50;;;6.13;;
64643;SDS011;51056;50.330;7.914;2023-08-21T08:38:35;7.47;;;5.93;;
64643;SDS011;51056;50.330;7.914;2023-08-21T08:41:43;8.27;;;5.90;;
64643;SDS011;51056;50.330;7.914;2023-08-21T08:44:54;10.50;;;5.78;;
64643;SDS011;51056;50.330;7.914;2023-08-21T08:48:00;9.38;;;6.15;;
64643;SDS011;51056;50.330;7.914;2023-08-21T08:51:04;11.20;;;7.05;;
64643;SDS011;51056;50.330;7.914;2023-08-21T08:54:08;7.88;;;6.28;;
64643;SDS011;51056;50.330;7.914;2023-08-21T08:57:12;9.55;;;6.05;;
64643;SDS011;51056;50.330;7.914;2023-08-21T09:00:15;9.95;;;6.22;;
64643;SDS011;51056;50.330;7.914;2023-08-21T09:03:18;13.02;;;7.20;;
64643;SDS011;51056;50.330;7.914;2023-08-21T09:06:22;18.20;;;9.70;;
64643;SDS011;51056;50.330;7.914;2023-08-21T09:09:25;31.27;;;12.90;;
64643;SDS011;51056;50.330;7.914;2023-08-21T09:12:31;12.00;;;6.53;;
64643;SDS011;51056;50.330;7.914;2023-08-21T09:15:35;10.43;;;7.13;;
64643;SDS011;51056;50.330;7.914;2023-08-21T09:18:45;10.73;;;6.93;;
64643;SDS011;51056;50.330;7.914;2023-08-21T09:21:50;17.63;;;6.68;;
64643;SDS011;51056;50.330;7.914;2023-08-21T09:28:09;7.97;;;4.95;;
64643;SDS011;51056;50.330;7.914;2023-08-21T09:31:12;9.40;;;6.28;;
64643;SDS011;51056;50.330;7.914;2023-08-21T09:34:16;7.75;;;5.43;;
64643;SDS011;51056;50.330;7.914;2023-08-21T09:37:21;7.18;;;5.32;;
64643;SDS011;51056;50.330;7.914;2023-08-21T09:40:31;6.97;;;5.15;;
64643;SDS011;51056;50.330;7.914;2023-08-21T09:43:37;7.22;;;4.75;;
64643;SDS011;51056;50.330;7.914;2023-08-21T09:46:46;6.38;;;4.78;;
64643;SDS011;51056;50.330;7.914;2023-08-21T09:49:54;9.77;;;4.90;;
64643;SDS011;51056;50.330;7.914;2023-08-21T09:53:01;6.93;;;4.68;;
64643;SDS011;51056;50.330;7.914;2023-08-21T09:56:25;12.48;;;5.78;;
64643;SDS011;51056;50.330;7.914;2023-08-21T09:59:31;6.13;;;4.20;;
64643;SDS011;51056;50.330;7.914;2023-08-21T10:02:35;5.32;;;4.15;;
64643;SDS011;51056;50.330;7.914;2023-08-21T10:05:38;6.80;;;4.45;;
64643;SDS011;51056;50.330;7.914;2023-08-21T10:08:42;7.35;;;5.07;;
64643;SDS011;51056;50.330;7.914;2023-08-21T10:11:50;3.85;;;2.72;;
64643;SDS011;51056;50.330;7.914;2023-08-21T10:15:01;4.97;;;2.67;;
64643;SDS011;51056;50.330;7.914;2023-08-21T10:18:18;5.05;;;2.53;;
64643;SDS011;51056;50.330;7.914;2023-08-21T10:21:36;3.88;;;1.95;;
64643;SDS011;51056;50.330;7.914;2023-08-21T10:24:42;2.92;;;1.88;;
64643;SDS011;51056;50.330;7.914;2023-08-21T10:32:03;5.80;;;2.72;;
64643;SDS011;51056;50.330;7.914;2023-08-21T10:35:21;5.43;;;2.58;;
64643;SDS011;51056;50.330;7.914;2023-08-21T10:38:26;5.32;;;2.15;;
64643;SDS011;51056;50.330;7.914;2023-08-21T10:41:29;3.38;;;2.03;;
64643;SDS011;51056;50.330;7.914;2023-08-21T10:47:38;4.28;;;2.00;;
64643;SDS011;51056;50.330;7.914;2023-08-21T10:50:41;5.10;;;1.92;;
64643;SDS011;51056;50.330;7.914;2023-08-21T10:53:45;4.03;;;2.35;;
64643;SDS011;51056;50.330;7.914;2023-08-21T10:56:50;3.97;;;2.17;;
64643;SDS011;51056;50.330;7.914;2023-08-21T10:59:55;4.15;;;1.90;;
64643;SDS011;51056;50.330;7.914;2023-08-21T11:03:00;4.13;;;2.13;;
64643;SDS011;51056;50.330;7.914;2023-08-21T11:06:09;3.72;;;2.05;;
64643;SDS011;51056;50.330;7.914;2023-08-21T11:09:13;3.95;;;1.90;;
64643;SDS011;51056;50.330;7.914;2023-08-21T11:12:22;4.38;;;2.20;;
64643;SDS011;51056;50.330;7.914;2023-08-21T11:15:31;5.43;;;2.17;;
64643;SDS011;51056;50.330;7.914;2023-08-21T11:18:37;3.10;;;1.50;;
64643;SDS011;51056;50.330;7.914;2023-08-21T11:21:41;5.10;;;2.40;;
64643;SDS011;51056;50.330;7.914;2023-08-21T11:24:47;4.53;;;1.90;;
64643;SDS011;51056;50.330;7.914;2023-08-21T11:27:52;5.95;;;1.70;;
64643;SDS011;51056;50.330;7.914;2023-08-21T11:30:56;7.10;;;1.52;;
64643;SDS011;51056;50.330;7.914;2023-08-21T11:34:00;3.17;;;1.42;;
64643;SDS011;51056;50.330;7.914;2023-08-21T11:37:04;4.68;;;1.75;;
64643;SDS011;51056;50.330;7.914;2023-08-21T11:40:08;4.47;;;1.80;;
64643;SDS011;51056;50.330;7.914;2023-08-21T11:43:12;5.70;;;1.70;;
64643;SDS011;51056;50.330;7.914;2023-08-21T11:46:15;3.08;;;1.70;;
64643;SDS011;51056;50.330;7.914;2023-08-21T11:49:23;4.13;;;2.13;;
64643;SDS011;51056;50.330;7.914;2023-08-21T11:52:29;4.18;;;2.30;;
64643;SDS011;51056;50.330;7.914;2023-08-21T11:55:38;5.15;;;2.50;;
64643;SDS011;51056;50.330;7.914;2023-08-21T11:58:44;2.75;;;1.80;;
64643;SDS011;51056;50.330;7.914;2023-08-21T12:01:52;2.97;;;1.85;;
64643;SDS011;51056;50.330;7.914;2023-08-21T12:05:04;4.28;;;2.10;;
64643;SDS011;51056;50.330;7.914;2023-08-21T12:08:08;3.67;;;1.92;;
64643;SDS011;51056;50.330;7.914;2023-08-21T12:11:14;5.03;;;2.08;;
64643;SDS011;51056;50.330;7.914;2023-08-21T12:14:18;3.00;;;1.92;;
64643;SDS011;51056;50.330;7.914;2023-08-21T12:17:22;3.55;;;2.00;;
64643;SDS011;51056;50.330;7.914;2023-08-21T12:20:25;3.78;;;1.70;;
64643;SDS011;51056;50.330;7.914;2023-08-21T12:23:29;5.57;;;2.17;;
64643;SDS011;51056;50.330;7.914;2023-08-21T12:26:33;6.15;;;2.80;;
64643;SDS011;51056;50.330;7.914;2023-08-21T12:29:37;5.93;;;2.03;;
64643;SDS011;51056;50.330;7.914;2023-08-21T12:32:40;5.45;;;2.08;;
64643;SDS011;51056;50.330;7.914;2023-08-21T12:35:44;3.90;;;1.92;;
64643;SDS011;51056;50.330;7.914;2023-08-21T12:38:48;4.72;;;1.90;;
64643;SDS011;51056;50.330;7.914;2023-08-21T12:41:52;2.60;;;1.50;;
64643;SDS011;51056;50.330;7.914;2023-08-21T12:44:55;6.15;;;2.00;;
64643;SDS011;51056;50.330;7.914;2023-08-21T12:47:59;4.07;;;2.03;;
64643;SDS011;51056;50.330;7.914;2023-08-21T12:51:02;5.28;;;2.10;;
64643;SDS011;51056;50.330;7.914;2023-08-21T12:54:14;3.47;;;1.77;;
64643;SDS011;51056;50.330;7.914;2023-08-21T12:57:17;6.25;;;2.17;;
64643;SDS011;51056;50.330;7.914;2023-08-21T13:00:21;3.53;;;2.10;;
64643;SDS011;51056;50.330;7.914;2023-08-21T13:03:24;4.28;;;2.20;;
64643;SDS011;51056;50.330;7.914;2023-08-21T13:06:37;14.85;;;2.47;;
64643;SDS011;51056;50.330;7.914;2023-08-21T13:09:41;4.13;;;2.55;;
64643;SDS011;51056;50.330;7.914;2023-08-21T13:12:45;6.30;;;2.25;;
64643;SDS011;51056;50.330;7.914;2023-08-21T13:15:48;4.68;;;2.50;;
64643;SDS011;51056;50.330;7.914;2023-08-21T13:18:51;4.10;;;2.03;;
64643;SDS011;51056;50.330;7.914;2023-08-21T13:21:55;3.45;;;1.55;;
64643;SDS011;51056;50.330;7.914;2023-08-21T13:24:58;4.00;;;1.90;;
64643;SDS011;51056;50.330;7.914;2023-08-21T13:28:04;6.38;;;2.30;;
64643;SDS011;51056;50.330;7.914;2023-08-21T13:32:00;6.18;;;2.25;;
64643;SDS011;51056;50.330;7.914;2023-08-21T13:35:40;5.75;;;2.05;;
64643;SDS011;51056;50.330;7.914;2023-08-21T13:39:27;5.20;;;1.95;;
64643;SDS011;51056;50.330;7.914;2023-08-21T13:46:01;4.97;;;1.77;;
64643;SDS011;51056;50.330;7.914;2023-08-21T13:49:07;4.78;;;1.88;;
64643;SDS011;51056;50.330;7.914;2023-08-21T14:10:49;6.63;;;2.20;;
64643;SDS011;51056;50.330;7.914;2023-08-21T14:13:53;4.13;;;2.45;;
64643;SDS011;51056;50.330;7.914;2023-08-21T14:27:13;3.38;;;2.20;;
64643;SDS011;51056;50.330;7.914;2023-08-21T14:30:37;5.32;;;2.38;;
64643;SDS011;51056;50.330;7.914;2023-08-21T14:33:56;4.72;;;2.25;;
64643;SDS011;51056;50.330;7.914;2023-08-21T14:40:36;3.13;;;2.03;;
64643;SDS011;51056;50.330;7.914;2023-08-21T14:52:54;4.63;;;2.35;;
64643;SDS011;51056;50.330;7.914;2023-08-21T15:08:58;7.63;;;2.35;;
64643;SDS011;51056;50.330;7.914;2023-08-21T15:12:11;8.10;;;2.83;;
64643;SDS011;51056;50.330;7.914;2023-08-21T15:15:17;6.68;;;2.17;;
64643;SDS011;51056;50.330;7.914;2023-08-21T15:18:27;5.25;;;2.60;;
64643;SDS011;51056;50.330;7.914;2023-08-21T15:21:32;5.70;;;2.25;;
64643;SDS011;51056;50.330;7.914;2023-08-21T15:24:55;5.55;;;2.63;;
64643;SDS011;51056;50.330;7.914;2023-08-21T15:28:02;5.32;;;2.50;;
64643;SDS011;51056;50.330;7.914;2023-08-21T15:31:24;4.78;;;2.90;;
64643;SDS011;51056;50.330;7.914;2023-08-21T15:34:35;5.72;;;2.70;;
64643;SDS011;51056;50.330;7.914;2023-08-21T15:37:40;5.72;;;2.55;;
64643;SDS011;51056;50.330;7.914;2023-08-21T15:44:14;8.20;;;2.60;;
64643;SDS011;51056;50.330;7.914;2023-08-21T15:47:21;4.25;;;2.53;;
64643;SDS011;51056;50.330;7.914;2023-08-21T15:50:24;7.57;;;2.72;;
64643;SDS011;51056;50.330;7.914;2023-08-21T15:53:28;6.20;;;3.45;;
64643;SDS011;51056;50.330;7.914;2023-08-21T15:56:31;5.95;;;2.72;;
64643;SDS011;51056;50.330;7.914;2023-08-21T15:59:35;6.15;;;2.90;;
64643;SDS011;51056;50.330;7.914;2023-08-21T16:02:38;5.88;;;3.13;;
64643;SDS011;51056;50.330;7.914;2023-08-21T16:14:22;5.18;;;3.35;;
64643;SDS011;51056;50.330;7.914;2023-08-21T16:17:33;5.65;;;3.72;;
64643;SDS011;51056;50.330;7.914;2023-08-21T16:20:36;7.03;;;3.65;;
64643;SDS011;51056;50.330;7.914;2023-08-21T16:23:39;5.63;;;4.00;;
64643;SDS011;51056;50.330;7.914;2023-08-21T16:26:44;7.00;;;3.90;;
64643;SDS011;51056;50.330;7.914;2023-08-21T16:29:47;7.32;;;3.67;;
64643;SDS011;51056;50.330;7.914;2023-08-21T16:32:51;7.50;;;3.67;;
64643;SDS011;51056;50.330;7.914;2023-08-21T16:35:54;10.23;;;3.75;;
64643;SDS011;51056;50.330;7.914;2023-08-21T16:38:58;7.53;;;3.58;;
64643;SDS011;51056;50.330;7.914;2023-08-21T16:42:04;7.28;;;3.80;;
64643;SDS011;51056;50.330;7.914;2023-08-21T16:45:08;10.15;;;4.95;;
64643;SDS011;51056;50.330;7.914;2023-08-21T16:48:17;7.05;;;4.60;;
64643;SDS011;51056;50.330;7.914;2023-08-21T16:51:21;5.80;;;4.15;;
64643;SDS011;51056;50.330;7.914;2023-08-21T16:54:27;7.47;;;4.50;;
64643;SDS011;51056;50.330;7.914;2023-08-21T16:57:32;6.90;;;4.32;;
64643;SDS011;51056;50.330;7.914;2023-08-21T17:00:35;12.43;;;4.93;;
64643;SDS011;51056;50.330;7.914;2023-08-21T17:03:42;7.50;;;4.82;;
64643;SDS011;51056;50.330;7.914;2023-08-21T17:06:45;12.25;;;5.45;;
64643;SDS011;51056;50.330;7.914;2023-08-21T17:09:48;8.35;;;5.03;;
64643;SDS011;51056;50.330;7.914;2023-08-21T17:12:52;7.50;;;4.50;;
64643;SDS011;51056;50.330;7.914;2023-08-21T17:15:58;8.30;;;4.82;;
64643;SDS011;51056;50.330;7.914;2023-08-21T17:19:02;8.48;;;4.70;;
64643;SDS011;51056;50.330;7.914;2023-08-21T17:22:06;9.30;;;4.57;;
64643;SDS011;51056;50.330;7.914;2023-08-21T17:25:10;9.68;;;4.50;;
64643;SDS011;51056;50.330;7.914;2023-08-21T17:28:16;7.20;;;4.13;;
64643;SDS011;51056;50.330;7.914;2023-08-21T17:31:20;7.82;;;4.70;;
64643;SDS011;51056;50.330;7.914;2023-08-21T17:34:25;9.15;;;4.50;;
64643;SDS011;51056;50.330;7.914;2023-08-21T17:37:28;8.27;;;4.78;;
64643;SDS011;51056;50.330;7.914;2023-08-21T17:40:32;9.88;;;5.30;;
64643;SDS011;51056;50.330;7.914;2023-08-21T17:43:39;12.85;;;5.05;;
64643;SDS011;51056;50.330;7.914;2023-08-21T17:46:47;12.63;;;4.82;;
64643;SDS011;51056;50.330;7.914;2023-08-21T17:49:53;7.93;;;4.60;;
64643;SDS011;51056;50.330;7.914;2023-08-21T17:53:03;11.95;;;5.18;;
64643;SDS011;51056;50.330;7.914;2023-08-21T17:56:14;12.20;;;5.50;;
64643;SDS011;51056;50.330;7.914;2023-08-21T17:59:18;10.68;;;4.97;;
64643;SDS011;51056;50.330;7.914;2023-08-21T18:02:25;8.48;;;4.65;;
64643;SDS011;51056;50.330;7.914;2023-08-21T18:05:29;7.20;;;4.68;;
64643;SDS011;51056;50.330;7.914;2023-08-21T18:08:33;10.32;;;4.68;;
64643;SDS011;51056;50.330;7.914;2023-08-21T18:11:40;11.02;;;4.57;;
64643;SDS011;51056;50.330;7.914;2023-08-21T18:14:44;13.45;;;4.82;;
64643;SDS011;51056;50.330;7.914;2023-08-21T18:17:48;9.80;;;4.80;;
64643;SDS011;51056;50.330;7.914;2023-08-21T18:20:55;17.25;;;4.90;;
64643;SDS011;51056;50.330;7.914;2023-08-21T18:24:03;15.60;;;4.55;;
64643;SDS011;51056;50.330;7.914;2023-08-21T18:27:43;11.05;;;4.85;;
64643;SDS011;51056;50.330;7.914;2023-08-21T18:30:47;13.98;;;5.68;;
64643;SDS011;51056;50.330;7.914;2023-08-21T18:33:54;10.77;;;5.00;;
64643;SDS011;51056;50.330;7.914;2023-08-21T18:37:02;13.60;;;5.75;;
64643;SDS011;51056;50.330;7.914;2023-08-21T18:40:32;10.43;;;4.72;;
64643;SDS011;51056;50.330;7.914;2023-08-21T18:43:36;9.38;;;5.50;;
64643;SDS011;51056;50.330;7.914;2023-08-21T18:46:39;11.15;;;5.65;;
64643;SDS011;51056;50.330;7.914;2023-08-21T18:49:43;10.45;;;5.50;;
64643;SDS011;51056;50.330;7.914;2023-08-21T18:52:46;9.90;;;5.20;;
64643;SDS011;51056;50.330;7.914;2023-08-21T18:55:50;9.32;;;4.70;;
64643;SDS011;51056;50.330;7.914;2023-08-21T18:58:54;12.68;;;5.30;;
64643;SDS011;51056;50.330;7.914;2023-08-21T19:01:58;8.63;;;5.57;;
64643;SDS011;51056;50.330;7.914;2023-08-21T19:05:02;11.02;;;4.72;;
64643;SDS011;51056;50.330;7.914;2023-08-21T19:08:06;13.73;;;5.53;;
64643;SDS011;51056;50.330;7.914;2023-08-21T19:11:11;10.70;;;4.82;;
64643;SDS011;51056;50.330;7.914;2023-08-21T19:14:15;6.97;;;5.60;;
64643;SDS011;51056;50.330;7.914;2023-08-21T19:17:21;8.80;;;5.20;;
64643;SDS011;51056;50.330;7.914;2023-08-21T19:20:25;9.55;;;5.72;;
64643;SDS011;51056;50.330;7.914;2023-08-21T19:23:28;13.85;;;5.32;;
64643;SDS011;51056;50.330;7.914;2023-08-21T19:26:38;12.13;;;4.68;;
64643;SDS011;51056;50.330;7.914;2023-08-21T19:29:45;10.43;;;5.57;;
64643;SDS011;51056;50.330;7.914;2023-08-21T19:37:34;13.20;;;5.88;;
64643;SDS011;51056;50.330;7.914;2023-08-21T19:40:41;10.32;;;6.03;;
64643;SDS011;51056;50.330;7.914;2023-08-21T19:43:47;13.23;;;5.97;;
64643;SDS011;51056;50.330;7.914;2023-08-21T19:46:51;10.45;;;5.60;;
64643;SDS011;51056;50.330;7.914;2023-08-21T19:49:54;15.73;;;6.05;;
64643;SDS011;51056;50.330;7.914;2023-08-21T19:52:59;10.75;;;5.53;;
64643;SDS011;51056;50.330;7.914;2023-08-21T19:56:03;18.70;;;6.18;;
64643;SDS011;51056;50.330;7.914;2023-08-21T19:59:09;11.63;;;6.13;;
64643;SDS011;51056;50.330;7.914;2023-08-21T20:02:12;11.23;;;5.57;;
64643;SDS011;51056;50.330;7.914;2023-08-21T20:05:17;12.48;;;6.35;;
64643;SDS011;51056;50.330;7.914;2023-08-21T20:08:21;9.65;;;5.90;;
64643;SDS011;51056;50.330;7.914;2023-08-21T20:11:49;13.57;;;5.85;;
64643;SDS011;51056;50.330;7.914;2023-08-21T20:14:53;9.95;;;5.50;;
64643;SDS011;51056;50.330;7.914;2023-08-21T20:21:11;11.95;;;6.20;;
64643;SDS011;51056;50.330;7.914;2023-08-21T20:24:23;12.98;;;5.80;;
64643;SDS011;51056;50.330;7.914;2023-08-21T20:27:27;11.05;;;6.32;;